PHKPB EHEH-EHRD
Flight info
| Callsign | PHKPB |
|---|---|
| Flight time | N/A |
| Altitude | 2500 |
| Route | DCT |
| Aircraft | DA40/L-SBDGIRWY/LB2 |
Departure
| Time | 2026-04-27 11:15 |
|---|---|
| Airport | Eindhoven Airport (EHEH) |
Arrival
| Time | N/A |
|---|---|
| Airport | Rotterdam The Hague Airport (EHRD) |
| Time | Latitude | Longitude | Altitude | Speed | Heading |
|---|---|---|---|---|---|
| 2026-04-27 11:00 | 51.45768 | 5.37749 | 69 ft | 0 kts | 55° |
| 2026-04-27 11:09 | 51.45770 | 5.37758 | 65 ft | 4 kts | 82° |
| 2026-04-27 11:09 | 51.45737 | 5.37712 | 69 ft | 12 kts | 235° |
| 2026-04-27 11:09 | 51.45672 | 5.37569 | 70 ft | 17 kts | 239° |
| 2026-04-27 11:10 | 51.45611 | 5.37394 | 69 ft | 15 kts | 236° |
| 2026-04-27 11:10 | 51.45553 | 5.37212 | 68 ft | 21 kts | 243° |
| 2026-04-27 11:10 | 51.45489 | 5.37009 | 70 ft | 16 kts | 242° |
| 2026-04-27 11:10 | 51.45403 | 5.36880 | 71 ft | 20 kts | 213° |
| 2026-04-27 11:11 | 51.45289 | 5.36804 | 66 ft | 18 kts | 166° |
| 2026-04-27 11:11 | 51.45161 | 5.36845 | 70 ft | 19 kts | 169° |
| 2026-04-27 11:11 | 51.45016 | 5.36890 | 66 ft | 19 kts | 168° |
| 2026-04-27 11:11 | 51.44900 | 5.36924 | 66 ft | 16 kts | 169° |
| 2026-04-27 11:12 | 51.44799 | 5.36972 | 64 ft | 11 kts | 127° |
| 2026-04-27 11:12 | 51.44775 | 5.37011 | 70 ft | 0 kts | 130° |
| 2026-04-27 11:13 | 51.44768 | 5.37027 | 70 ft | 5 kts | 118° |
| 2026-04-27 11:13 | 51.44730 | 5.37089 | 71 ft | 11 kts | 127° |
| 2026-04-27 11:13 | 51.44775 | 5.37184 | 69 ft | 15 kts | 34° |
| 2026-04-27 11:14 | 51.44954 | 5.37385 | 70 ft | 59 kts | 36° |
| 2026-04-27 11:14 | 51.45403 | 5.37876 | 170 ft | 89 kts | 34° |
| 2026-04-27 11:14 | 51.45926 | 5.38456 | 287 ft | 93 kts | 36° |
| 2026-04-27 11:14 | 51.46464 | 5.39039 | 469 ft | 91 kts | 28° |
| 2026-04-27 11:15 | 51.47087 | 5.39177 | 710 ft | 96 kts | 355° |
| 2026-04-27 11:15 | 51.47668 | 5.38664 | 963 ft | 100 kts | 312° |
| 2026-04-27 11:15 | 51.47904 | 5.37603 | 1198 ft | 109 kts | 271° |
| 2026-04-27 11:15 | 51.47598 | 5.36489 | 1364 ft | 114 kts | 228° |
| 2026-04-27 11:16 | 51.47011 | 5.35580 | 1492 ft | 119 kts | 216° |
| 2026-04-27 11:16 | 51.46599 | 5.34462 | 1664 ft | 118 kts | 263° |
| 2026-04-27 11:16 | 51.46805 | 5.33212 | 1761 ft | 120 kts | 300° |
| 2026-04-27 11:16 | 51.47171 | 5.31946 | 1713 ft | 128 kts | 297° |
| 2026-04-27 11:17 | 51.47540 | 5.30646 | 1732 ft | 126 kts | 296° |
| 2026-04-27 11:17 | 51.47938 | 5.29412 | 1794 ft | 124 kts | 303° |
| 2026-04-27 11:17 | 51.48441 | 5.28286 | 1865 ft | 123 kts | 312° |
| 2026-04-27 11:17 | 51.49015 | 5.27279 | 1922 ft | 127 kts | 324° |
| 2026-04-27 11:18 | 51.49611 | 5.26299 | 2079 ft | 122 kts | 303° |
| 2026-04-27 11:18 | 51.49843 | 5.24953 | 2041 ft | 130 kts | 277° |
| 2026-04-27 11:18 | 51.49796 | 5.23462 | 1953 ft | 136 kts | 266° |
| 2026-04-27 11:18 | 51.49721 | 5.21967 | 1938 ft | 134 kts | 263° |
| 2026-04-27 11:19 | 51.49527 | 5.20532 | 1896 ft | 128 kts | 258° |
| 2026-04-27 11:19 | 51.49348 | 5.19139 | 1875 ft | 127 kts | 260° |
| 2026-04-27 11:19 | 51.49183 | 5.17760 | 1852 ft | 126 kts | 259° |
| 2026-04-27 11:19 | 51.49011 | 5.16373 | 1816 ft | 126 kts | 263° |
| 2026-04-27 11:20 | 51.49067 | 5.15000 | 1775 ft | 122 kts | 284° |
| 2026-04-27 11:20 | 51.49229 | 5.13719 | 1834 ft | 112 kts | 284° |
| 2026-04-27 11:20 | 51.49549 | 5.12626 | 1919 ft | 108 kts | 311° |
| 2026-04-27 11:20 | 51.50102 | 5.11867 | 1928 ft | 104 kts | 335° |
| 2026-04-27 11:21 | 51.50749 | 5.11323 | 1925 ft | 106 kts | 335° |
| 2026-04-27 11:21 | 51.51402 | 5.10770 | 1936 ft | 106 kts | 334° |
| 2026-04-27 11:21 | 51.52055 | 5.10220 | 1935 ft | 106 kts | 334° |
| 2026-04-27 11:21 | 51.52720 | 5.09648 | 1928 ft | 107 kts | 341° |
| 2026-04-27 11:22 | 51.53438 | 5.09532 | 1932 ft | 104 kts | 1° |
| 2026-04-27 11:22 | 51.54161 | 5.09473 | 1937 ft | 106 kts | 1° |
| 2026-04-27 11:22 | 51.54912 | 5.09306 | 1939 ft | 113 kts | 350° |
| 2026-04-27 11:22 | 51.55623 | 5.08861 | 1949 ft | 113 kts | 333° |
| 2026-04-27 11:23 | 51.56311 | 5.08199 | 1944 ft | 117 kts | 329° |
| 2026-04-27 11:23 | 51.56843 | 5.07212 | 1933 ft | 118 kts | 303° |
| 2026-04-27 11:23 | 51.57148 | 5.06004 | 1934 ft | 117 kts | 284° |
| 2026-04-27 11:23 | 51.57330 | 5.04742 | 1941 ft | 116 kts | 286° |
| 2026-04-27 11:24 | 51.57511 | 5.03478 | 1933 ft | 115 kts | 286° |
| 2026-04-27 11:24 | 51.57683 | 5.02226 | 1931 ft | 114 kts | 285° |
| 2026-04-27 11:24 | 51.57861 | 5.00987 | 1932 ft | 113 kts | 284° |
| 2026-04-27 11:24 | 51.58043 | 4.99767 | 1934 ft | 112 kts | 286° |
| 2026-04-27 11:25 | 51.58226 | 4.98539 | 1927 ft | 112 kts | 285° |
| 2026-04-27 11:25 | 51.58414 | 4.97298 | 1942 ft | 117 kts | 285° |
| 2026-04-27 11:25 | 51.58612 | 4.96037 | 1939 ft | 121 kts | 285° |
| 2026-04-27 11:25 | 51.58799 | 4.94718 | 1925 ft | 119 kts | 285° |
| 2026-04-27 11:26 | 51.58987 | 4.93464 | 1934 ft | 112 kts | 288° |
| 2026-04-27 11:26 | 51.59159 | 4.92237 | 1931 ft | 111 kts | 284° |
| 2026-04-27 11:26 | 51.59334 | 4.91013 | 1934 ft | 114 kts | 285° |
| 2026-04-27 11:26 | 51.59524 | 4.89762 | 1935 ft | 115 kts | 284° |
| 2026-04-27 11:27 | 51.59706 | 4.88531 | 1928 ft | 111 kts | 285° |
| 2026-04-27 11:27 | 51.59868 | 4.87329 | 1931 ft | 111 kts | 279° |
| 2026-04-27 11:27 | 51.59948 | 4.86095 | 1943 ft | 109 kts | 277° |
| 2026-04-27 11:27 | 51.60007 | 4.84904 | 1978 ft | 106 kts | 276° |
| 2026-04-27 11:28 | 51.60074 | 4.83735 | 1996 ft | 104 kts | 279° |
| 2026-04-27 11:28 | 51.60153 | 4.82510 | 1983 ft | 111 kts | 278° |
| 2026-04-27 11:28 | 51.60214 | 4.81261 | 2010 ft | 114 kts | 276° |
| 2026-04-27 11:28 | 51.60294 | 4.79993 | 1986 ft | 110 kts | 277° |
| 2026-04-27 11:29 | 51.60292 | 4.78765 | 1986 ft | 110 kts | 268° |
| 2026-04-27 11:29 | 51.60247 | 4.77514 | 2011 ft | 114 kts | 266° |
| 2026-04-27 11:29 | 51.60188 | 4.76198 | 1989 ft | 120 kts | 262° |
| 2026-04-27 11:29 | 51.59808 | 4.75067 | 1997 ft | 114 kts | 233° |
| 2026-04-27 11:30 | 51.59308 | 4.74122 | 1989 ft | 111 kts | 217° |
| 2026-04-27 11:30 | 51.58702 | 4.73327 | 1984 ft | 114 kts | 214° |
| 2026-04-27 11:30 | 51.58040 | 4.72580 | 1922 ft | 116 kts | 212° |
| 2026-04-27 11:30 | 51.57611 | 4.72056 | 1853 ft | 118 kts | 217° |
| 2026-04-27 11:31 | 51.57063 | 4.71108 | 1752 ft | 115 kts | 232° |
| 2026-04-27 11:31 | 51.56621 | 4.70047 | 1737 ft | 112 kts | 239° |
| 2026-04-27 11:31 | 51.56234 | 4.68988 | 1682 ft | 109 kts | 239° |
| 2026-04-27 11:31 | 51.55866 | 4.67894 | 1689 ft | 108 kts | 242° |
| 2026-04-27 11:32 | 51.55508 | 4.66844 | 1600 ft | 108 kts | 236° |
| 2026-04-27 11:32 | 51.55108 | 4.65836 | 1562 ft | 106 kts | 236° |
| 2026-04-27 11:32 | 51.54696 | 4.64847 | 1466 ft | 110 kts | 237° |
| 2026-04-27 11:32 | 51.54268 | 4.63876 | 1452 ft | 105 kts | 236° |
| 2026-04-27 11:33 | 51.53874 | 4.62883 | 1386 ft | 107 kts | 240° |
| 2026-04-27 11:33 | 51.53513 | 4.61874 | 1420 ft | 103 kts | 238° |
| 2026-04-27 11:33 | 51.53130 | 4.60896 | 1342 ft | 104 kts | 236° |
| 2026-04-27 11:33 | 51.52755 | 4.59925 | 1288 ft | 102 kts | 235° |
| 2026-04-27 11:34 | 51.52347 | 4.58998 | 1203 ft | 102 kts | 234° |
| 2026-04-27 11:34 | 51.51970 | 4.57992 | 1140 ft | 106 kts | 251° |
| 2026-04-27 11:34 | 51.51893 | 4.56868 | 1130 ft | 103 kts | 276° |
| 2026-04-27 11:34 | 51.52039 | 4.55800 | 1109 ft | 95 kts | 297° |
| 2026-04-27 11:35 | 51.52439 | 4.55027 | 1082 ft | 85 kts | 333° |
| 2026-04-27 11:35 | 51.52965 | 4.54747 | 1089 ft | 80 kts | 358° |
| 2026-04-27 11:35 | 51.53544 | 4.54704 | 1115 ft | 85 kts | 4° |
| 2026-04-27 11:35 | 51.54076 | 4.54460 | 1173 ft | 79 kts | 315° |
| 2026-04-27 11:36 | 51.54147 | 4.53565 | 1095 ft | 91 kts | 256° |
| 2026-04-27 11:36 | 51.53935 | 4.52523 | 966 ft | 98 kts | 248° |
| 2026-04-27 11:36 | 51.53783 | 4.51560 | 968 ft | 77 kts | 296° |
| 2026-04-27 11:36 | 51.54182 | 4.51300 | 899 ft | 69 kts | 13° |
| 2026-04-27 11:37 | 51.54530 | 4.51702 | 749 ft | 62 kts | 65° |
| 2026-04-27 11:37 | 51.54706 | 4.52333 | 640 ft | 61 kts | 62° |
| 2026-04-27 11:37 | 51.54867 | 4.52958 | 522 ft | 61 kts | 66° |
| 2026-04-27 11:37 | 51.55032 | 4.53591 | 373 ft | 62 kts | 63° |
| 2026-04-27 11:38 | 51.55210 | 4.54201 | 192 ft | 60 kts | 64° |
| 2026-04-27 11:38 | 51.55365 | 4.54825 | 69 ft | 60 kts | 60° |
| 2026-04-27 11:38 | 51.55516 | 4.55384 | 36 ft | 48 kts | 59° |
| 2026-04-27 11:38 | 51.55663 | 4.55899 | 84 ft | 63 kts | 59° |
| 2026-04-27 11:39 | 51.55895 | 4.56644 | 274 ft | 82 kts | 61° |
| 2026-04-27 11:39 | 51.56140 | 4.57506 | 586 ft | 89 kts | 66° |
| 2026-04-27 11:39 | 51.56378 | 4.58409 | 792 ft | 81 kts | 81° |
| 2026-04-27 11:39 | 51.56032 | 4.59134 | 799 ft | 99 kts | 168° |
| 2026-04-27 11:40 | 51.55476 | 4.58549 | 875 ft | 105 kts | 236° |
| 2026-04-27 11:40 | 51.55069 | 4.57528 | 846 ft | 110 kts | 237° |
| 2026-04-27 11:40 | 51.54662 | 4.56464 | 792 ft | 113 kts | 239° |
| 2026-04-27 11:40 | 51.54278 | 4.55373 | 793 ft | 111 kts | 244° |
| 2026-04-27 11:41 | 51.53951 | 4.54293 | 845 ft | 105 kts | 250° |
| 2026-04-27 11:41 | 51.53750 | 4.53221 | 947 ft | 102 kts | 258° |
| 2026-04-27 11:41 | 51.53737 | 4.52083 | 910 ft | 101 kts | 293° |
| 2026-04-27 11:41 | 51.54221 | 4.51461 | 863 ft | 81 kts | 3° |
| 2026-04-27 11:42 | 51.54613 | 4.51897 | 707 ft | 71 kts | 65° |
| 2026-04-27 11:42 | 51.54789 | 4.52629 | 542 ft | 68 kts | 66° |
| 2026-04-27 11:42 | 51.54965 | 4.53297 | 396 ft | 62 kts | 65° |
| 2026-04-27 11:42 | 51.55134 | 4.53909 | 231 ft | 58 kts | 59° |
| 2026-04-27 11:43 | 51.55285 | 4.54526 | 124 ft | 61 kts | 66° |
| 2026-04-27 11:43 | 51.55456 | 4.55159 | 39 ft | 58 kts | 63° |
| 2026-04-27 11:43 | 51.55607 | 4.55712 | 39 ft | 57 kts | 63° |
| 2026-04-27 11:43 | 51.55832 | 4.56437 | 174 ft | 85 kts | 61° |
| 2026-04-27 11:44 | 51.56116 | 4.57289 | 512 ft | 84 kts | 60° |
| 2026-04-27 11:44 | 51.56370 | 4.58126 | 800 ft | 91 kts | 60° |
| 2026-04-27 11:44 | 51.56380 | 4.58946 | 1108 ft | 88 kts | 155° |
| 2026-04-27 11:44 | 51.55822 | 4.58508 | 1124 ft | 102 kts | 231° |
| 2026-04-27 11:45 | 51.55353 | 4.57563 | 1068 ft | 109 kts | 228° |
| 2026-04-27 11:45 | 51.55024 | 4.56954 | 1044 ft | 105 kts | 227° |
| 2026-04-27 11:45 | 51.54452 | 4.55754 | 1067 ft | 97 kts | 244° |
| 2026-04-27 11:45 | 51.54177 | 4.54770 | 967 ft | 97 kts | 245° |
| 2026-04-27 11:46 | 51.53895 | 4.53811 | 964 ft | 96 kts | 246° |
| 2026-04-27 11:46 | 51.53649 | 4.52794 | 981 ft | 96 kts | 255° |
| 2026-04-27 11:46 | 51.53722 | 4.51811 | 944 ft | 90 kts | 308° |
| 2026-04-27 11:46 | 51.54219 | 4.51342 | 887 ft | 74 kts | 3° |
| 2026-04-27 11:47 | 51.54603 | 4.51747 | 732 ft | 68 kts | 66° |
| 2026-04-27 11:47 | 51.54762 | 4.52469 | 587 ft | 67 kts | 69° |
| 2026-04-27 11:47 | 51.54922 | 4.53161 | 433 ft | 63 kts | 65° |
| 2026-04-27 11:47 | 51.55091 | 4.53793 | 280 ft | 58 kts | 58° |
| 2026-04-27 11:48 | 51.55249 | 4.54396 | 141 ft | 59 kts | 64° |
| 2026-04-27 11:48 | 51.55410 | 4.54998 | 41 ft | 56 kts | 62° |
| 2026-04-27 11:48 | 51.55560 | 4.55532 | 30 ft | 48 kts | 61° |
| 2026-04-27 11:48 | 51.55718 | 4.56112 | 120 ft | 70 kts | 66° |
| 2026-04-27 11:49 | 51.55919 | 4.56958 | 303 ft | 89 kts | 67° |
| 2026-04-27 11:49 | 51.56107 | 4.57897 | 702 ft | 79 kts | 98° |
| 2026-04-27 11:49 | 51.55629 | 4.58277 | 955 ft | 101 kts | 187° |
| 2026-04-27 11:49 | 51.55129 | 4.57526 | 1064 ft | 109 kts | 239° |
| 2026-04-27 11:50 | 51.54734 | 4.56442 | 1113 ft | 113 kts | 239° |
| 2026-04-27 11:50 | 51.54349 | 4.55373 | 1144 ft | 110 kts | 240° |
| 2026-04-27 11:50 | 51.53972 | 4.54270 | 1110 ft | 114 kts | 245° |
| 2026-04-27 11:50 | 51.53645 | 4.53088 | 1090 ft | 120 kts | 254° |
| 2026-04-27 11:51 | 51.53751 | 4.51939 | 1056 ft | 100 kts | 315° |
| 2026-04-27 11:51 | 51.54294 | 4.51638 | 996 ft | 75 kts | 12° |
| 2026-04-27 11:51 | 51.54840 | 4.52786 | 608 ft | 71 kts | 68° |
| 2026-04-27 11:52 | 51.55022 | 4.53522 | 370 ft | 70 kts | 66° |
| 2026-04-27 11:52 | 51.55195 | 4.54232 | 176 ft | 67 kts | 63° |
| 2026-04-27 11:52 | 51.55381 | 4.54889 | 50 ft | 62 kts | 65° |
| 2026-04-27 11:52 | 51.55544 | 4.55472 | 28 ft | 53 kts | 63° |
| 2026-04-27 11:53 | 51.55690 | 4.55995 | 57 ft | 60 kts | 68° |
| 2026-04-27 11:53 | 51.55851 | 4.56710 | 266 ft | 78 kts | 71° |
| 2026-04-27 11:53 | 51.55997 | 4.57583 | 592 ft | 85 kts | 76° |
| 2026-04-27 11:53 | 51.55874 | 4.58371 | 922 ft | 85 kts | 159° |
| 2026-04-27 11:54 | 51.55344 | 4.57856 | 1007 ft | 105 kts | 238° |
| 2026-04-27 11:54 | 51.54945 | 4.56798 | 950 ft | 114 kts | 242° |
| 2026-04-27 11:54 | 51.54540 | 4.55702 | 980 ft | 112 kts | 240° |
| 2026-04-27 11:54 | 51.54131 | 4.54643 | 927 ft | 111 kts | 238° |
| 2026-04-27 11:55 | 51.53733 | 4.53561 | 923 ft | 110 kts | 245° |
| 2026-04-27 11:55 | 51.53570 | 4.52460 | 939 ft | 99 kts | 301° |
| 2026-04-27 11:55 | 51.54141 | 4.52051 | 782 ft | 92 kts | 355° |
| 2026-04-27 11:55 | 51.54680 | 4.52198 | 583 ft | 81 kts | 51° |
| 2026-04-27 11:56 | 51.54891 | 4.52998 | 394 ft | 74 kts | 71° |
| 2026-04-27 11:56 | 51.55069 | 4.53717 | 253 ft | 62 kts | 68° |
| 2026-04-27 11:56 | 51.55235 | 4.54356 | 112 ft | 60 kts | 67° |
| 2026-04-27 11:56 | 51.55390 | 4.54930 | 39 ft | 52 kts | 63° |
| 2026-04-27 11:57 | 51.55517 | 4.55405 | 29 ft | 34 kts | 64° |
| 2026-04-27 11:57 | 51.55586 | 4.55636 | 26 ft | 17 kts | 70° |
| 2026-04-27 11:57 | 51.55636 | 4.55830 | 28 ft | 18 kts | 68° |
| 2026-04-27 11:57 | 51.55689 | 4.55854 | 27 ft | 8 kts | 286° |
| 2026-04-27 11:58 | 51.55659 | 4.55731 | 28 ft | 15 kts | 247° |
| 2026-04-27 11:58 | 51.55626 | 4.55609 | 27 ft | 11 kts | 245° |
| 2026-04-27 11:58 | 51.55592 | 4.55485 | 27 ft | 12 kts | 245° |
| 2026-04-27 11:58 | 51.55552 | 4.55333 | 29 ft | 17 kts | 245° |
| 2026-04-27 11:59 | 51.55499 | 4.55142 | 30 ft | 14 kts | 244° |
| 2026-04-27 11:59 | 51.55467 | 4.55026 | 33 ft | 4 kts | 249° |
| 2026-04-27 11:59 | 51.55501 | 4.54992 | 34 ft | 8 kts | 340° |
| 2026-04-27 11:59 | 51.55524 | 4.54995 | 34 ft | 0 kts | 26° |